Flight Track Log - Related Links

Times and Time Zones

All times are in EDT time to prevent confusion due to time zone crossing. See the N841AS flight status page for this flight to view local times or setup timezone preferences in your user account.

Time Position Orientation Groundspeed Altitude Reporting Facility
EDT Latitude Longitude Course Direction KTS MPH feet Rate Location/Type
Tue 02:16:43 PM 33.6350 -84.3881 118° Southeast 376 433 2,500  Level Atlanta Center
Tue 02:17:43 PM 33.6333 -84.3008 91° East 308 354 5,000 2,600 Climbing Atlanta Center
Tue 02:18:43 PM 33.6292 -84.2183 93° East 274 315 7,700 2,800 Climbing Atlanta Center
Tue 02:19:00 PM 33.7006 -83.9964 118° Southeast  Level FlightAware Approximate
Tue 02:19:43 PM 33.6169 -84.1186 98° East 283 326 10,600  Level Atlanta Center
Tue 02:20:00 PM 33.6582 -83.8994 118° Southeast  Level FlightAware Approximate
Tue 02:20:43 PM 33.6022 -84.0064 99° East 324 373 11,100  Level Atlanta Center
Tue 02:21:00 PM 33.6157 -83.8026 118° Southeast  Level FlightAware Approximate
Tue 02:21:43 PM 33.5833 -83.8817 100° East 367 422 12,100  Level Atlanta Center
Tue 02:22:43 PM 33.5622 -83.7497 101° East 395 455 13,200 1,250 Climbing Atlanta Center
Tue 02:23:43 PM 33.5514 -83.6175 96° East 395 455 14,600 1,400 Climbing Atlanta Center
Tue 02:24:43 PM 33.5656 -83.4828 83° East 395 455 16,000 1,300 Climbing Atlanta Center
Tue 02:25:43 PM 33.5794 -83.3656 82° East 400 460 17,200 1,250 Climbing Atlanta Center
Tue 02:26:43 PM 33.5911 -83.2308 84° East 405 466 18,500 1,350 Climbing Atlanta Center
Tue 02:27:43 PM 33.6069 -83.1033 81° East 399 459 19,900 1,250 Climbing Atlanta Center
Tue 02:28:43 PM 33.6247 -82.9686 81° East 399 459 21,000 1,016 Climbing Atlanta Center
Tue 02:30:52 PM 33.6525 -82.6831 83° East 406 467 23,100 984 Climbing Jacksonville Center
Tue 02:31:52 PM 33.6647 -82.5481 84° East 406 467 24,100 1,000 Climbing Jacksonville Center
Tue 02:32:52 PM 33.6769 -82.4033 84° East 412 474 25,100 1,100 Climbing Jacksonville Center
Tue 02:33:52 PM 33.6969 -82.2511 81° East 421 484 26,300 950 Climbing Jacksonville Center
Tue 02:34:52 PM 33.7172 -82.1186 80° East 421 484 27,000 350 Climbing Jacksonville Center
Tue 02:35:52 PM 33.7475 -81.9758 76° East 416 479 27,000  Level Jacksonville Center
Tue 02:36:52 PM 33.7797 -81.8331 75° East 427 491 27,000  Level Jacksonville Center
Tue 02:37:52 PM 33.8119 -81.6853 75° East 437 503 27,000  Level Jacksonville Center
Tue 02:38:52 PM 33.8667 -81.5444 65° Northeast 454 522 27,000  Level Jacksonville Center
Tue 02:39:52 PM 33.9258 -81.4083 62° Northeast 454 522 27,000  Level Jacksonville Center
Tue 02:40:52 PM 33.9867 -81.2694 62° Northeast 460 529 27,000  Level Jacksonville Center
Tue 02:41:52 PM 34.0475 -81.1356 61° Northeast 460 529 27,000  Level Jacksonville Center
Tue 02:42:52 PM 34.1058 -80.9967 63° Northeast 460 529 27,000  Level Jacksonville Center
Tue 02:43:52 PM 34.1644 -80.8597 63° Northeast 454 522 27,000 -150 Level Jacksonville Center
Tue 02:44:52 PM 34.2244 -80.7203 62° Northeast 454 522 26,700 -650 Descending Jacksonville Center
Tue 02:45:52 PM 34.2867 -80.5781 62° Northeast 459 528 25,700 -992 Descending Jacksonville Center
Tue 02:46:53 PM 34.3444 -80.4331 64° Northeast 459 528 24,700 -1,000 Descending Jacksonville Center
Tue 02:47:52 PM 34.4044 -80.2981 62° Northeast 459 528 23,700 -1,008 Descending Jacksonville Center
Tue 02:48:52 PM 34.4639 -80.1603 62° Northeast 454 522 22,700 -900 Descending Jacksonville Center
Tue 02:49:52 PM 34.5056 -80.0556 64° Northeast 449 517 21,900 -900 Descending Jacksonville Center
Tue 02:50:52 PM 34.5628 -79.9150 64° Northeast 430 495 20,900 -1,450 Descending Jacksonville Center
Tue 02:51:52 PM 34.6139 -79.7897 64° Northeast 424 488 19,000 -2,710 Descending Jacksonville Center
Tue 02:52:25 PM 34.6494 -79.7122 61° Northeast 423 487 16,700 -3,548 Descending Washington Center
Tue 02:53:25 PM 34.7131 -79.6244 49° Northeast 403 464 13,500 -2,850 Descending Washington Center
Tue 02:54:25 PM 34.7892 -79.5347 44° Northeast 364 419 11,000 -1,240 Descending Washington Center
Tue 02:55:26 PM 34.8211 -79.4500 65° Northeast 310 357 11,000 -600 Level Washington Center
Tue 02:56:25 PM 34.8517 -79.3453 70° East 296 341 9,800 -1,714 Descending Washington Center
Tue 02:57:25 PM 34.8606 -79.2519 83° East 282 325 7,600 -1,884 Descending Washington Center
Tue 02:58:26 PM 34.8486 -79.1681 100° East 259 298 6,000 -1,770 Descending Washington Center
Tue 02:59:27 PM 34.8406 -79.0892 97° East 254 292 4,000 -1,686 Descending Washington Center
Tue 03:00:27 PM 34.8450 -79.0108 86° East 236 272 2,600 -864 Descending Washington Center
Tue 03:01:25 PM 34.8794 -78.9694 45° Northeast 182 209 2,300 -310 Descending Washington Center

Login

Don't have an account? Register now (free) for customized features, flight alerts, and more!